Time;durP1;ratioP1;P1;durP2;ratioP2;P2;SDS_P1;SDS_P2;PMS_P1;PMS_P2;Temp;Humidity;BMP_temperature;BMP_pressure;BME280_temperature;BME280_humidity;BME280_pressure;Samples;Min_cycle;Max_cycle;Signal;HPM_P1;HPM_P2
2021/06/27 00:01:46;;;;;;;19.75;12.10;;;;;;;23.39;61.21;98876.91;4937058;29;20047;-83
2021/06/27 00:04:14;;;;;;;16.60;11.45;;;;;;;23.46;61.20;98880.44;4938066;29;20047;-85
2021/06/27 00:06:40;;;;;;;14.87;11.27;;;;;;;23.47;61.25;98893.06;4938124;29;20052;-84
2021/06/27 00:09:06;;;;;;;18.27;11.18;;;;;;;23.50;61.26;98892.59;4937955;29;20154;-83
2021/06/27 00:11:33;;;;;;;20.45;11.45;;;;;;;23.51;60.96;98886.09;4938001;29;20483;-83
2021/06/27 00:13:59;;;;;;;16.98;11.75;;;;;;;23.52;61.17;98885.03;4938121;29;20110;-84
2021/06/27 00:16:28;;;;;;;22.75;12.20;;;;;;;23.54;61.22;98873.06;4938224;29;20040;-84
2021/06/27 00:18:54;;;;;;;14.23;10.90;;;;;;;23.54;61.08;98876.63;4938271;29;20503;-84
2021/06/27 00:21:20;;;;;;;25.98;11.98;;;;;;;23.60;60.90;98894.03;4937904;29;20044;-85
2021/06/27 00:23:47;;;;;;;13.00;11.07;;;;;;;23.58;60.97;98885.22;4937929;29;20103;-85
2021/06/27 00:26:14;;;;;;;23.45;11.65;;;;;;;23.55;60.73;98885.69;4938326;29;20051;-85
2021/06/27 00:28:41;;;;;;;22.55;12.45;;;;;;;23.60;60.37;98878.50;4945207;29;20040;-85
2021/06/27 00:31:07;;;;;;;19.27;11.80;;;;;;;23.60;60.52;98877.66;4925492;29;20510;-85
2021/06/27 00:33:33;;;;;;;21.33;11.95;;;;;;;23.60;60.33;98883.13;4936738;29;20058;-86
2021/06/27 00:35:59;;;;;;;17.25;11.30;;;;;;;23.59;60.35;98878.72;4937671;29;20083;-86
2021/06/27 00:38:25;;;;;;;20.65;11.57;;;;;;;23.56;60.46;98879.16;4937831;29;20043;-85
2021/06/27 00:40:51;;;;;;;19.50;11.77;;;;;;;23.55;60.62;98888.41;4936532;29;20044;-86
2021/06/27 00:43:17;;;;;;;22.80;11.55;;;;;;;23.53;60.27;98891.31;4936711;29;20048;-89
2021/06/27 00:45:43;;;;;;;18.70;11.77;;;;;;;23.57;60.25;98897.19;4937391;29;20051;-85
2021/06/27 00:48:09;;;;;;;24.90;12.35;;;;;;;23.57;60.56;98897.19;4937575;29;20510;-83
2021/06/27 00:50:42;;;;;;;23.90;12.18;;;;;;;23.60;60.58;98902.22;4937604;29;20043;-85
2021/06/27 00:53:09;;;;;;;22.88;12.45;;;;;;;23.59;60.47;98906.00;4936498;29;20456;-84
2021/06/27 00:55:35;;;;;;;13.93;11.70;;;;;;;23.60;60.71;98905.78;4937198;29;20118;-85
2021/06/27 00:58:01;;;;;;;44.97;12.27;;;;;;;23.59;60.57;98903.28;4951978;29;20463;-85
2021/06/27 01:00:30;;;;;;;25.35;13.00;;;;;;;23.58;60.60;98901.59;4937192;29;20142;-84
2021/06/27 01:02:56;;;;;;;24.02;11.73;;;;;;;23.58;60.71;98896.13;4888762;29;20049;-84
2021/06/27 01:05:25;;;;;;;18.77;12.30;;;;;;;23.58;60.56;98899.69;4937057;29;20053;-83
2021/06/27 01:07:51;;;;;;;19.65;12.48;;;;;;;23.63;60.46;98902.63;4936612;29;20491;-83
2021/06/27 01:10:17;;;;;;;21.23;12.23;;;;;;;23.69;60.47;98907.22;4936784;29;20078;-83
2021/06/27 01:12:44;;;;;;;16.30;12.50;;;;;;;23.71;60.20;98904.28;4936787;29;20403;-81
2021/06/27 01:15:10;;;;;;;17.70;12.27;;;;;;;23.69;60.22;98900.94;4937003;29;20043;-85
2021/06/27 01:17:39;;;;;;;20.25;12.95;;;;;;;23.74;60.17;98912.03;4937870;29;20091;-86
2021/06/27 01:20:13;;;;;;;16.17;11.93;;;;;;;23.70;60.30;98913.53;4951510;29;20050;-83
2021/06/27 01:22:39;;;;;;;20.27;11.70;;;;;;;23.68;60.21;98923.81;4949252;29;20039;-84
2021/06/27 01:25:07;;;;;;;19.05;11.75;;;;;;;23.61;60.49;98920.25;4947621;29;20086;-82
2021/06/27 01:27:33;;;;;;;23.83;11.07;;;;;;;23.62;60.49;98916.47;4939624;29;20129;-84
2021/06/27 01:29:59;;;;;;;17.83;11.90;;;;;;;23.67;60.72;98919.44;4939052;29;20103;-81
2021/06/27 01:32:25;;;;;;;19.95;11.73;;;;;;;23.73;60.54;98924.00;4935607;29;20407;-80
2021/06/27 01:34:51;;;;;;;16.73;11.52;;;;;;;23.82;60.59;98927.31;4936527;29;20051;-83
2021/06/27 01:37:16;;;;;;;14.68;12.32;;;;;;;23.88;60.57;98919.09;4936396;29;20046;-81
2021/06/27 01:39:42;;;;;;;29.23;12.02;;;;;;;24.02;60.65;98917.13;4936363;29;20087;-82
2021/06/27 01:42:08;;;;;;;22.73;12.05;;;;;;;24.13;60.34;98915.56;4936229;29;20482;-82
2021/06/27 01:44:34;;;;;;;14.55;11.95;;;;;;;24.22;59.92;98911.50;4936022;29;20490;-83
2021/06/27 01:47:00;;;;;;;20.25;11.25;;;;;;;24.33;59.89;98902.59;4936305;29;20059;-82
2021/06/27 01:49:26;;;;;;;28.35;11.75;;;;;;;24.37;59.48;98911.19;4936097;29;20050;-83
2021/06/27 01:51:52;;;;;;;20.48;11.70;;;;;;;24.39;59.32;98909.94;4936063;29;20406;-82
2021/06/27 01:54:18;;;;;;;20.48;11.60;;;;;;;24.53;59.06;98912.56;4936236;29;20103;-82
2021/06/27 01:56:44;;;;;;;16.35;10.60;;;;;;;24.58;59.09;98920.94;4936235;29;20095;-85
2021/06/27 01:59:12;;;;;;;19.52;11.57;;;;;;;24.65;58.78;98918.97;4936323;29;20483;-84
2021/06/27 02:01:39;;;;;;;20.60;11.52;;;;;;;24.75;58.88;98913.84;4934788;29;20134;-86
2021/06/27 02:04:05;;;;;;;21.73;12.32;;;;;;;24.77;58.81;98900.78;4934757;29;20115;-81
2021/06/27 02:06:34;;;;;;;19.35;11.35;;;;;;;24.89;58.38;98896.22;4919103;29;20059;-85
2021/06/27 02:09:01;;;;;;;29.88;11.60;;;;;;;24.93;58.39;98897.44;4934879;29;20055;-82
2021/06/27 02:11:27;;;;;;;18.13;11.02;;;;;;;24.99;58.13;98901.19;4934821;29;20051;-88
2021/06/27 02:13:53;;;;;;;21.95;11.15;;;;;;;25.02;58.04;98910.84;4934685;29;20050;-84
2021/06/27 02:16:19;;;;;;;19.38;11.82;;;;;;;25.12;57.95;98913.91;4934631;29;20091;-80
2021/06/27 02:18:49;;;;;;;15.23;11.07;;;;;;;25.19;57.68;98923.69;4938220;29;20131;-83
2021/06/27 02:21:26;;;;;;;24.23;11.57;;;;;;;25.28;57.57;98924.25;4936933;29;20039;-85
2021/06/27 02:23:52;;;;;;;17.58;12.25;;;;;;;25.34;57.34;98937.00;4903381;29;20055;-85
2021/06/27 02:26:18;;;;;;;21.20;12.05;;;;;;;25.43;57.04;98943.84;4935606;29;20142;-82
2021/06/27 02:28:45;;;;;;;22.73;11.65;;;;;;;25.58;56.84;98943.47;4934542;29;20047;-87
2021/06/27 02:31:11;;;;;;;14.20;12.15;;;;;;;25.66;56.69;98942.31;4935189;29;20418;-88
2021/06/27 02:33:37;;;;;;;22.80;12.40;;;;;;;25.70;56.76;98940.78;4935224;29;20052;-85
2021/06/27 02:36:03;;;;;;;19.05;11.82;;;;;;;25.75;56.51;98940.91;4934317;29;20230;-84
2021/06/27 02:38:29;;;;;;;19.67;11.65;;;;;;;25.86;56.38;98947.53;4934186;29;20043;-88
2021/06/27 02:40:55;;;;;;;17.13;11.45;;;;;;;25.83;56.27;98954.31;4934426;29;20134;-82
2021/06/27 02:43:21;;;;;;;24.90;11.80;;;;;;;25.91;56.21;98964.97;4934065;29;20079;-79
2021/06/27 02:45:47;;;;;;;14.77;11.43;;;;;;;25.95;55.72;98959.00;4935249;29;20055;-83
2021/06/27 02:48:13;;;;;;;21.27;11.80;;;;;;;26.01;56.02;98952.59;4949919;29;20043;-77
2021/06/27 02:50:40;;;;;;;19.55;12.55;;;;;;;26.03;56.06;98958.72;4935751;29;20102;-80
2021/06/27 02:53:07;;;;;;;30.42;12.77;;;;;;;26.15;55.91;98962.31;4902717;29;20043;-84
2021/06/27 02:55:33;;;;;;;24.17;11.43;;;;;;;26.25;55.64;98951.59;4933798;29;20455;-82
2021/06/27 02:57:59;;;;;;;21.08;11.73;;;;;;;26.43;55.45;98960.84;4935407;29;20231;-82
2021/06/27 03:00:25;;;;;;;18.80;11.50;;;;;;;26.46;55.35;98969.44;4935489;29;20519;-82
2021/06/27 03:02:51;;;;;;;15.50;10.88;;;;;;;26.39;55.94;98972.25;4934942;29;20095;-79
2021/06/27 03:05:17;;;;;;;14.32;11.25;;;;;;;26.31;56.03;98969.84;4935265;29;20050;-80
2021/06/27 03:07:43;;;;;;;21.13;10.77;;;;;;;26.21;56.54;98974.22;4902622;29;20044;-80
2021/06/27 03:10:11;;;;;;;15.55;11.10;;;;;;;26.31;56.69;98958.91;4933586;29;20088;-84
2021/06/27 03:12:39;;;;;;;11.90;10.48;;;;;;;26.30;56.61;98962.72;4918336;29;20063;-80
2021/06/27 03:15:06;;;;;;;16.88;11.20;;;;;;;26.35;56.75;98960.09;4934907;29;20530;-79
2021/06/27 03:17:32;;;;;;;12.75;10.43;;;;;;;26.51;56.26;98953.13;4934917;29;20503;-77
2021/06/27 03:19:58;;;;;;;17.38;10.85;;;;;;;26.64;56.24;98963.06;4934872;29;20050;-78
2021/06/27 03:22:24;;;;;;;15.50;11.02;;;;;;;26.65;56.15;98964.72;4886356;29;20056;-78
2021/06/27 03:24:50;;;;;;;14.27;10.82;;;;;;;26.75;56.02;98962.25;4933629;29;20611;-78
2021/06/27 03:27:17;;;;;;;15.95;11.48;;;;;;;26.88;55.60;98958.41;4934175;29;20431;-79
2021/06/27 03:29:43;;;;;;;16.20;10.25;;;;;;;26.77;55.71;98960.06;4934977;29;20048;-79
2021/06/27 03:32:09;;;;;;;14.98;11.00;;;;;;;26.73;56.24;98961.63;4938407;29;20040;-78
2021/06/27 03:34:35;;;;;;;18.33;11.15;;;;;;;26.55;56.86;98958.97;4938442;29;20127;-77
2021/06/27 03:37:01;;;;;;;19.75;11.65;;;;;;;26.69;56.69;98960.44;4938362;29;20035;-79
2021/06/27 03:39:26;;;;;;;20.10;10.50;;;;;;;26.70;56.58;98950.28;4936414;29;20410;-81
2021/06/27 03:41:53;;;;;;;25.83;10.75;;;;;;;26.90;56.66;98949.97;4903081;29;20154;-79
2021/06/27 03:44:20;;;;;;;14.70;10.40;;;;;;;26.95;56.49;98952.81;4934484;29;20462;-81
2021/06/27 03:46:46;;;;;;;17.08;10.40;;;;;;;27.04;56.11;98956.84;4935490;29;20031;-80
2021/06/27 03:49:12;;;;;;;16.98;10.48;;;;;;;27.22;55.73;98948.53;4918704;29;20414;-80
2021/06/27 03:51:38;;;;;;;19.02;10.90;;;;;;;27.45;55.31;98957.81;4935673;29;20054;-79
2021/06/27 03:54:04;;;;;;;16.40;10.23;;;;;;;27.48;55.07;98962.81;4935656;29;20043;-81
2021/06/27 03:56:30;;;;;;;19.92;10.55;;;;;;;27.45;54.91;98957.81;4937798;29;20182;-78
2021/06/27 03:58:56;;;;;;;13.60;10.63;;;;;;;27.64;54.74;98958.47;4936825;29;20051;-79
2021/06/27 04:01:22;;;;;;;22.65;10.18;;;;;;;27.88;54.15;98953.78;4905592;29;20193;-81
2021/06/27 04:03:48;;;;;;;17.60;10.75;;;;;;;28.07;53.65;98960.75;4937588;29;20079;-80
2021/06/27 04:06:14;;;;;;;13.10;10.05;;;;;;;28.18;53.35;98962.63;4936596;29;20071;-81
2021/06/27 04:08:39;;;;;;;15.10;10.35;;;;;;;28.25;53.18;98963.28;4937766;29;20047;-79
2021/06/27 04:11:06;;;;;;;20.48;9.98;;;;;;;28.31;53.02;98959.53;4938051;29;20393;-79
2021/06/27 04:13:33;;;;;;;16.50;10.63;;;;;;;28.35;53.32;98956.28;4920790;29;20047;-78
2021/06/27 04:15:58;;;;;;;14.27;10.05;;;;;;;28.53;52.91;98961.59;4937738;29;20058;-79
2021/06/27 04:18:25;;;;;;;22.35;10.80;;;;;;;28.69;52.94;98963.50;4936369;29;20197;-79
2021/06/27 04:20:51;;;;;;;11.70;10.27;;;;;;;28.68;53.36;98961.84;4936086;29;20499;-79
2021/06/27 04:23:17;;;;;;;17.02;11.05;;;;;;;28.88;53.25;98960.50;4937633;29;20055;-81
2021/06/27 04:25:43;;;;;;;22.50;10.25;;;;;;;29.00;53.09;98970.38;4936290;29;20047;-79
2021/06/27 04:28:09;;;;;;;15.32;10.30;;;;;;;29.03;53.02;98969.03;4936251;29;20484;-80
2021/06/27 04:30:36;;;;;;;15.23;10.27;;;;;;;29.11;53.00;98976.88;4936230;29;20224;-79
2021/06/27 04:33:02;;;;;;;18.77;10.80;;;;;;;29.23;52.39;98974.84;4937238;29;20090;-79
2021/06/27 04:35:28;;;;;;;13.55;9.82;;;;;;;29.35;52.37;98973.91;4935722;29;20521;-79
2021/06/27 04:37:54;;;;;;;14.32;9.82;;;;;;;29.47;51.98;98969.13;4935427;29;20499;-81
2021/06/27 04:40:20;;;;;;;17.48;10.23;;;;;;;29.40;51.68;98976.72;4935673;29;20134;-79
2021/06/27 04:42:46;;;;;;;26.45;10.32;;;;;;;29.53;51.60;98973.63;4936200;29;20107;-81
2021/06/27 04:45:13;;;;;;;23.42;10.10;;;;;;;29.69;51.45;98966.41;4937216;29;20075;-80
2021/06/27 04:47:39;;;;;;;20.25;9.30;;;;;;;29.72;50.40;98972.22;4937066;29;20047;-81
2021/06/27 04:50:05;;;;;;;17.15;9.77;;;;;;;29.77;49.96;98969.53;4936858;29;20147;-80
2021/06/27 04:52:33;;;;;;;16.75;9.82;;;;;;;29.46;49.72;98975.72;4935711;29;20078;-79
2021/06/27 04:55:00;;;;;;;;;;;;;;;29.47;49.84;98980.13;4920491;29;20055;-80
2021/06/27 04:57:26;;;;;;;15.00;9.82;;;;;;;29.63;49.90;98978.44;4936414;29;20512;-79
2021/06/27 04:59:52;;;;;;;14.05;9.15;;;;;;;29.61;50.58;98973.19;4935604;29;20055;-80
2021/06/27 05:02:18;;;;;;;18.55;10.32;;;;;;;29.75;50.41;98985.50;4935643;29;20504;-80
2021/06/27 05:04:44;;;;;;;11.20;9.35;;;;;;;29.80;50.00;98983.91;4919203;29;20138;-79
2021/06/27 05:07:10;;;;;;;20.77;9.82;;;;;;;29.79;50.40;98976.69;4936648;29;20124;-79
2021/06/27 05:09:37;;;;;;;16.73;10.38;;;;;;;29.71;51.12;98986.25;4935500;29;20419;-78
2021/06/27 05:12:03;;;;;;;12.65;10.20;;;;;;;29.94;50.70;98979.63;4936727;29;20043;-79
2021/06/27 05:14:29;;;;;;;15.07;10.15;;;;;;;30.11;50.78;98972.13;4936623;29;20043;-80
2021/06/27 05:16:55;;;;;;;26.10;10.73;;;;;;;30.31;50.15;98984.47;4936930;29;20135;-78
2021/06/27 05:19:21;;;;;;;17.02;10.77;;;;;;;30.20;49.93;98967.84;4936482;29;20052;-79
2021/06/27 05:21:47;;;;;;;23.10;10.73;;;;;;;30.13;50.02;98963.59;4936422;29;20522;-79
2021/06/27 05:24:13;;;;;;;20.90;10.20;;;;;;;30.11;50.58;98969.34;4935675;29;20464;-79
2021/06/27 05:26:39;;;;;;;19.60;10.20;;;;;;;30.43;50.01;98969.44;4936228;29;20094;-80
2021/06/27 05:29:04;;;;;;;17.27;9.40;;;;;;;30.62;49.27;98972.66;4936221;29;20194;-79
2021/06/27 05:31:33;;;;;;;16.80;9.98;;;;;;;30.64;49.00;98966.88;4936316;29;20078;-79
2021/06/27 05:33:59;;;;;;;;;;;;;;;30.90;48.97;98960.47;4935280;29;20051;-79
2021/06/27 05:36:25;;;;;;;16.42;9.77;;;;;;;30.93;48.41;98953.59;4936111;29;19933;-79
2021/06/27 05:38:51;;;;;;;22.50;9.98;;;;;;;30.87;48.63;98965.69;4935353;29;20140;-78
2021/06/27 05:41:17;;;;;;;14.63;9.15;;;;;;;31.03;48.21;98964.72;4935187;29;20079;-79
2021/06/27 05:43:43;;;;;;;12.32;8.68;;;;;;;30.90;48.49;98960.47;4936192;29;20502;-80
2021/06/27 05:46:08;;;;;;;11.70;8.55;;;;;;;30.80;49.10;98962.31;4936229;29;20122;-81
2021/06/27 05:48:34;;;;;;;14.38;9.10;;;;;;;30.85;48.65;98963.22;4935856;29;20083;-79
2021/06/27 05:51:00;;;;;;;14.43;9.00;;;;;;;30.82;48.89;98957.38;4935962;29;20094;-79
2021/06/27 05:53:26;;;;;;;16.65;9.48;;;;;;;31.05;48.40;98962.53;4935674;29;20154;-80
2021/06/27 05:56:09;;;;;;;14.68;8.85;;;;;;;31.01;48.08;98950.34;4935650;29;20115;-81
2021/06/27 05:58:41;;;;;;;15.10;8.75;;;;;;;31.01;47.85;98955.88;4935884;29;20444;-79
2021/06/27 06:01:08;;;;;;;14.75;9.00;;;;;;;30.97;47.97;98957.50;4936068;29;20059;-79
2021/06/27 06:03:34;;;;;;;16.50;8.55;;;;;;;31.26;47.12;98962.66;4919044;29;20043;-81
2021/06/27 06:06:00;;;;;;;13.77;7.97;;;;;;;31.59;46.60;98967.00;4935616;29;20075;-80
2021/06/27 06:08:26;;;;;;;14.40;8.80;;;;;;;31.94;45.45;98962.75;4935768;29;20118;-80
2021/06/27 06:10:53;;;;;;;20.42;8.27;;;;;;;32.08;44.71;98970.25;4935706;29;20063;-82
2021/06/27 06:13:19;;;;;;;10.93;8.50;;;;;;;32.11;44.77;98972.47;4918680;29;20118;-82
2021/06/27 06:15:44;;;;;;;14.15;8.05;;;;;;;32.31;44.14;98968.94;4935341;29;20043;-78
2021/06/27 06:18:10;;;;;;;12.73;7.75;;;;;;;32.34;43.03;98970.28;4935568;29;20083;-80
2021/06/27 06:20:36;;;;;;;16.17;7.50;;;;;;;32.50;42.97;98969.25;4935608;29;20082;-80
2021/06/27 06:23:03;;;;;;;10.88;7.90;;;;;;;32.56;42.96;98964.53;4918516;29;20070;-79
2021/06/27 06:25:29;;;;;;;13.50;7.22;;;;;;;32.41;43.42;98959.81;4918703;29;20080;-80
2021/06/27 06:27:55;;;;;;;11.50;7.45;;;;;;;32.71;42.75;98956.25;4934261;29;20051;-80
2021/06/27 06:30:21;;;;;;;13.98;7.78;;;;;;;32.51;42.49;98962.59;4935407;29;20059;-80
2021/06/27 06:32:47;;;;;;;15.13;7.00;;;;;;;32.76;41.85;98959.03;4935730;29;20043;-81
2021/06/27 06:35:13;;;;;;;13.23;6.55;;;;;;;33.08;39.65;98955.97;4935464;29;20186;-79
2021/06/27 06:37:39;;;;;;;10.07;6.25;;;;;;;33.28;39.57;98959.78;4935550;29;20043;-80
2021/06/27 06:40:05;;;;;;;21.58;7.57;;;;;;;33.48;39.63;98953.41;4935420;29;20403;-80
2021/06/27 06:42:32;;;;;;;13.02;7.25;;;;;;;33.35;39.89;98949.25;4934330;29;20447;-80
2021/06/27 06:44:58;;;;;;;10.52;7.10;;;;;;;33.26;39.69;98942.63;4935580;29;20047;-80
2021/06/27 06:47:24;;;;;;;18.88;7.32;;;;;;;33.37;39.77;98941.50;4934166;29;20044;-79
2021/06/27 06:49:49;;;;;;;13.85;6.95;;;;;;;33.60;39.55;98935.34;4935480;29;20107;-80
2021/06/27 06:52:15;;;;;;;14.30;7.80;;;;;;;33.69;39.43;98940.28;4935312;29;20051;-80
2021/06/27 06:54:41;;;;;;;13.63;7.43;;;;;;;33.83;39.24;98939.38;4934261;29;20086;-81
2021/06/27 06:57:07;;;;;;;15.55;6.95;;;;;;;34.04;38.91;98940.13;4935182;29;20070;-81
2021/06/27 06:59:33;;;;;;;12.40;6.07;;;;;;;34.21;38.64;98950.00;4935395;29;20503;-80
2021/06/27 07:01:59;;;;;;;8.38;6.80;;;;;;;34.10;37.79;98945.66;4933883;29;20047;-80
2021/06/27 07:04:25;;;;;;;15.60;6.03;;;;;;;34.35;37.50;98939.94;4934867;29;20407;-80
2021/06/27 07:06:51;;;;;;;13.60;6.60;;;;;;;34.68;37.05;98948.56;4938565;29;20134;-80
2021/06/27 07:09:17;;;;;;;13.88;6.40;;;;;;;34.68;36.85;98948.56;4938956;29;20150;-80
2021/06/27 07:11:43;;;;;;;14.35;6.85;;;;;;;34.81;36.50;98947.91;4921833;29;20063;-80
2021/06/27 07:14:09;;;;;;;11.05;6.00;;;;;;;34.62;36.74;98944.19;4938746;29;20051;-80
2021/06/27 07:16:35;;;;;;;9.43;6.03;;;;;;;34.35;37.01;98945.47;4937609;29;20138;-80
2021/06/27 07:19:01;;;;;;;17.48;6.90;;;;;;;34.72;36.43;98949.66;4939004;29;20052;-80
2021/06/27 07:21:27;;;;;;;12.18;5.80;;;;;;;34.81;35.83;98942.34;4938705;29;20384;-81
2021/06/27 07:23:53;;;;;;;14.73;6.53;;;;;;;34.79;36.05;98945.44;4938773;29;20502;-81
2021/06/27 07:26:19;;;;;;;17.75;5.93;;;;;;;34.56;36.54;98946.16;4921709;29;20062;-80
2021/06/27 07:28:45;;;;;;;16.13;6.38;;;;;;;34.59;36.28;98951.16;4938624;29;20055;-81
2021/06/27 07:31:11;;;;;;;13.25;5.90;;;;;;;34.45;35.67;98942.59;4937115;29;20494;-80
2021/06/27 07:33:37;;;;;;;10.65;5.78;;;;;;;34.32;35.43;98940.50;4939063;29;20051;-81
2021/06/27 07:36:04;;;;;;;11.48;6.15;;;;;;;34.41;35.38;98935.97;4921559;29;20040;-81
2021/06/27 07:38:30;;;;;;;19.58;6.55;;;;;;;34.51;35.50;98949.81;4906605;29;20083;-81
2021/06/27 07:40:56;;;;;;;16.42;6.00;;;;;;;34.82;34.92;98938.44;4938405;29;20074;-81
2021/06/27 07:43:21;;;;;;;11.35;6.00;;;;;;;35.17;34.03;98933.69;4937814;29;20039;-81
2021/06/27 07:45:47;;;;;;;12.45;5.60;;;;;;;35.50;33.78;98932.78;4937999;29;20067;-80
2021/06/27 07:48:13;;;;;;;13.02;5.60;;;;;;;35.65;33.69;98926.19;4937114;29;20126;-82
2021/06/27 07:50:39;;;;;;;17.15;5.90;;;;;;;35.97;32.84;98919.09;4938069;29;20078;-81
2021/06/27 07:53:05;;;;;;;6.78;5.40;;;;;;;36.15;31.90;98914.69;4920913;29;20130;-81
2021/06/27 07:55:32;;;;;;;8.40;5.40;;;;;;;35.93;32.57;98920.84;4936782;29;20050;-80
2021/06/27 07:57:58;;;;;;;14.93;5.68;;;;;;;35.75;32.64;98925.25;4936822;29;20039;-81
2021/06/27 08:00:24;;;;;;;11.18;5.22;;;;;;;35.67;32.01;98918.41;4936833;29;20059;-80
2021/06/27 08:02:50;;;;;;;11.25;5.00;;;;;;;35.80;32.26;98914.03;4938031;29;20051;-81
2021/06/27 08:05:16;;;;;;;12.30;4.68;;;;;;;35.43;31.92;98904.50;4938115;29;20423;-79
2021/06/27 08:07:42;;;;;;;10.48;4.53;;;;;;;35.57;32.50;98915.75;4938099;29;20050;-81
2021/06/27 08:10:09;;;;;;;13.98;4.70;;;;;;;35.79;31.86;98917.94;4937720;29;20530;-81
2021/06/27 08:12:35;;;;;;;10.13;4.97;;;;;;;35.90;31.43;98913.91;4921152;29;20040;-81
2021/06/27 08:15:01;;;;;;;9.98;4.75;;;;;;;36.20;31.30;98917.41;4937973;29;20130;-81
2021/06/27 08:17:27;;;;;;;7.30;4.68;;;;;;;36.46;30.76;98909.47;4935521;29;20067;-81
2021/06/27 08:19:53;;;;;;;8.27;4.40;;;;;;;36.24;30.12;98924.00;4938496;29;20039;-80
2021/06/27 08:22:19;;;;;;;8.18;4.10;;;;;;;35.56;30.73;98925.22;4937878;29;20106;-79
2021/06/27 08:24:45;;;;;;;10.88;4.72;;;;;;;35.26;31.62;98915.25;4937732;29;20138;-80
2021/06/27 08:27:11;;;;;;;13.77;4.53;;;;;;;35.26;31.56;98915.25;4938042;29;20039;-81
2021/06/27 08:29:37;;;;;;;10.25;4.63;;;;;;;35.26;31.58;98912.47;4937704;29;20152;-81
2021/06/27 08:32:04;;;;;;;14.95;5.20;;;;;;;35.16;31.51;98904.25;4920707;29;20052;-81
2021/06/27 08:34:30;;;;;;;10.50;4.35;;;;;;;34.87;31.91;98913.44;4952108;28;20392;-81
2021/06/27 08:36:56;;;;;;;9.52;4.40;;;;;;;34.99;31.89;98904.69;4904838;29;20050;-81
2021/06/27 08:39:22;;;;;;;12.40;4.60;;;;;;;35.38;31.12;98904.53;4920608;29;20050;-81
2021/06/27 08:41:48;;;;;;;12.93;4.50;;;;;;;35.70;30.84;98909.47;4937630;29;20052;-81
2021/06/27 08:44:14;;;;;;;11.05;4.20;;;;;;;35.92;30.63;98906.09;4920853;29;20055;-80
2021/06/27 08:46:44;;;;;;;21.92;5.07;;;;;;;36.24;30.12;98907.31;4937507;29;20122;-82
2021/06/27 08:49:13;;;;;;;10.68;5.28;;;;;;;36.68;29.68;98911.63;4920280;29;20440;-82
2021/06/27 08:51:40;;;;;;;9.20;4.68;;;;;;;37.01;29.37;98918.00;4935914;29;20048;-82
2021/06/27 08:54:09;;;;;;;12.27;4.65;;;;;;;37.48;29.08;98912.41;4937224;29;20043;-80
2021/06/27 08:56:36;;;;;;;17.88;6.15;;;;;;;37.87;28.99;98903.44;4920355;29;20067;-83
2021/06/27 08:59:02;;;;;;;9.50;4.88;;;;;;;38.12;28.80;98913.25;4936874;29;20040;-81
2021/06/27 09:01:28;;;;;;;9.40;5.45;;;;;;;37.72;28.90;98915.78;4920595;29;20403;-81
2021/06/27 09:03:58;;;;;;;13.95;4.50;;;;;;;37.09;29.45;98905.34;4937507;29;20470;-81
2021/06/27 09:06:30;;;;;;;10.82;4.22;;;;;;;37.03;29.98;98892.66;4937081;29;20133;-81
2021/06/27 09:09:16;;;;;;;15.55;4.45;;;;;;;37.08;30.04;98903.69;4926760;29;20056;-81
2021/06/27 09:11:59;;;;;;;12.27;4.68;;;;;;;37.73;29.74;98888.69;4937139;29;20048;-80
2021/06/27 09:14:37;;;;;;;7.50;4.18;;;;;;;38.19;29.21;98899.69;4921216;29;20470;-81
2021/06/27 09:17:06;;;;;;;9.13;4.57;;;;;;;38.60;27.67;98899.53;4920332;29;20078;-82
2021/06/27 09:19:51;;;;;;;7.90;4.20;;;;;;;38.39;27.90;98893.63;4935261;29;20138;-81
2021/06/27 09:22:18;;;;;;;9.57;4.13;;;;;;;38.62;27.54;98900.00;4920112;29;20118;-81
2021/06/27 09:24:46;;;;;;;13.77;4.28;;;;;;;38.91;26.58;98909.09;4919466;29;20052;-81
2021/06/27 09:27:19;;;;;;;10.15;3.92;;;;;;;38.34;27.11;98907.72;4935151;29;20055;-82
2021/06/27 09:29:45;;;;;;;13.68;4.20;;;;;;;37.88;27.05;98905.97;4918841;29;20071;-81
2021/06/27 09:32:21;;;;;;;10.18;3.47;;;;;;;37.43;26.55;98904.97;4934978;29;20062;-81
2021/06/27 09:34:47;;;;;;;11.25;4.45;;;;;;;37.74;27.15;98899.56;4936177;29;20533;-81
2021/06/27 09:37:29;;;;;;;10.35;4.20;;;;;;;38.10;27.51;98894.03;4936193;29;20047;-82
2021/06/27 09:40:02;;;;;;;8.02;3.75;;;;;;;38.79;26.13;98893.75;4920769;29;20052;-81
2021/06/27 09:42:30;;;;;;;7.75;3.70;;;;;;;38.22;25.93;98893.47;4919490;29;20057;-83
2021/06/27 09:45:03;;;;;;;12.05;3.88;;;;;;;37.68;26.45;98881.28;4919940;29;20044;-81
2021/06/27 09:47:29;;;;;;;10.23;4.03;;;;;;;37.68;27.06;98884.88;4919222;29;20087;-81
2021/06/27 09:49:55;;;;;;;11.07;3.97;;;;;;;37.71;26.76;98879.84;4935990;29;20055;-81
2021/06/27 09:52:38;;;;;;;10.15;3.65;;;;;;;37.04;27.18;98875.59;4935788;29;20075;-80
2021/06/27 09:55:11;;;;;;;14.60;4.30;;;;;;;37.16;27.71;98872.31;4903389;29;20081;-81
2021/06/27 09:57:37;;;;;;;30.60;7.43;;;;;;;36.56;30.59;98886.22;4935451;29;20039;-81
2021/06/27 10:00:07;;;;;;;15.27;6.95;;;;;;;36.10;31.62;98878.59;4934416;29;20452;-80
2021/06/27 10:03:10;;;;;;;26.58;7.75;;;;;;;35.83;31.90;98885.63;4904129;29;20047;-83
2021/06/27 10:05:36;;;;;;;20.67;7.50;;;;;;;36.01;31.69;98886.81;4913549;29;20111;-80
2021/06/27 10:08:02;;;;;;;30.33;8.55;;;;;;;36.41;31.73;98893.69;4934677;29;20062;-81
2021/06/27 10:10:31;;;;;;;15.40;7.80;;;;;;;36.95;30.81;98889.44;4934422;29;20412;-83
2021/06/27 10:12:57;;;;;;;26.10;7.10;;;;;;;37.33;30.31;98916.28;4919128;29;20122;-78
2021/06/27 10:15:23;;;;;;;14.15;4.60;;;;;;;37.04;30.94;98947.22;4935725;29;20055;-77
2021/06/27 10:17:49;;;;;;;11.02;5.13;;;;;;;37.14;30.74;98936.72;4934372;29;20557;-81
2021/06/27 10:20:16;;;;;;;16.33;4.90;;;;;;;37.74;29.96;98926.63;4902859;29;20051;-80
2021/06/27 10:22:42;;;;;;;9.07;4.30;;;;;;;37.70;29.63;98926.44;4934431;29;20051;-81
2021/06/27 10:25:12;;;;;;;14.20;4.35;;;;;;;38.08;28.79;98929.78;4935625;29;20052;-81
2021/06/27 10:27:38;;;;;;;13.23;3.90;;;;;;;38.00;27.90;98912.97;4918222;29;20055;-86
2021/06/27 10:30:07;;;;;;;108.82;8.43;;;;;;;38.17;27.13;98913.09;4918646;29;20062;-81
2021/06/27 10:32:38;;;;;;;20.35;4.53;;;;;;;38.00;27.23;98913.78;4918279;29;20043;-81
2021/06/27 10:35:08;;;;;;;11.93;3.90;;;;;;;37.92;27.15;98911.75;4918796;29;20047;-82
2021/06/27 10:37:44;;;;;;;11.27;3.92;;;;;;;38.04;27.51;98902.84;4902914;29;20048;-81
2021/06/27 10:40:11;;;;;;;9.02;3.58;;;;;;;38.67;26.38;98892.63;4933298;29;20075;-81
2021/06/27 10:42:49;;;;;;;7.63;3.17;;;;;;;39.08;25.70;98911.97;4918729;29;20573;-81
2021/06/27 10:45:16;;;;;;;5.50;3.05;;;;;;;39.16;25.02;98911.19;4934136;29;20052;-81
2021/06/27 10:47:41;;;;;;;11.20;3.25;;;;;;;39.48;25.05;98906.38;4935250;29;20495;-81
2021/06/27 10:50:08;;;;;;;4.93;2.90;;;;;;;40.02;24.35;98909.81;4934912;29;20138;-82
2021/06/27 10:52:56;;;;;;;16.67;3.07;;;;;;;40.50;23.91;98934.03;4917999;29;20078;-80
2021/06/27 10:55:21;;;;;;;11.25;3.13;;;;;;;40.84;23.63;98929.56;4934405;29;20147;-82
2021/06/27 10:58:04;;;;;;;3.70;2.63;;;;;;;40.72;23.65;98931.09;4934123;29;20142;-81
2021/06/27 11:01:01;;;;;;;6.53;2.90;;;;;;;40.57;24.24;98937.22;4918290;29;20047;-81
2021/06/27 11:03:27;;;;;;;4.78;3.10;;;;;;;40.62;24.20;98941.81;4934208;29;20087;-81
2021/06/27 11:05:56;;;;;;;10.02;3.60;;;;;;;40.70;24.02;98933.41;4935172;29;20044;-81
2021/06/27 11:08:33;;;;;;;8.45;3.17;;;;;;;40.42;24.63;98940.50;4919515;29;20054;-80
2021/06/27 11:11:01;;;;;;;9.52;3.20;;;;;;;40.58;24.57;98938.03;4935949;29;20202;-80
2021/06/27 11:13:27;;;;;;;9.73;4.10;;;;;;;40.95;23.77;98925.25;4902545;29;20079;-82
2021/06/27 11:15:52;;;;;;;4.68;3.70;;;;;;;40.35;24.73;98928.94;4933777;29;20361;-79
2021/06/27 11:18:35;;;;;;;6.70;4.07;;;;;;;40.59;24.75;98937.72;4933803;29;20087;-81
2021/06/27 11:21:04;;;;;;;13.52;3.85;;;;;;;40.59;24.88;98932.09;4903023;29;20048;-80
2021/06/27 11:23:48;;;;;;;11.88;3.80;;;;;;;41.13;24.42;98929.69;4933687;29;20051;-80
2021/06/27 11:26:39;;;;;;;10.45;4.07;;;;;;;41.95;23.74;98929.47;4918179;29;20063;-81